sensor_id;sensor_type;location;lat;lon;timestamp;temperature;humidity
21950;DHT22;11139;51.284;7.226;2022-09-09T00:00:16;18.40;96.70
21950;DHT22;11139;51.284;7.226;2022-09-09T00:02:44;18.40;97.00
21950;DHT22;11139;51.284;7.226;2022-09-09T00:05:17;18.40;97.10
21950;DHT22;11139;51.284;7.226;2022-09-09T00:07:47;18.40;96.90
21950;DHT22;11139;51.284;7.226;2022-09-09T00:20:31;18.40;96.60
21950;DHT22;11139;51.284;7.226;2022-09-09T00:23:03;18.40;96.60
21950;DHT22;11139;51.284;7.226;2022-09-09T00:25:34;18.40;96.80
21950;DHT22;11139;51.284;7.226;2022-09-09T00:28:02;18.40;96.90
21950;DHT22;11139;51.284;7.226;2022-09-09T00:30:31;18.40;97.20
21950;DHT22;11139;51.284;7.226;2022-09-09T00:33:00;18.40;97.00
21950;DHT22;11139;51.284;7.226;2022-09-09T00:35:31;18.40;96.80
21950;DHT22;11139;51.284;7.226;2022-09-09T00:38:00;18.40;96.70
21950;DHT22;11139;51.284;7.226;2022-09-09T00:40:29;18.30;97.00
21950;DHT22;11139;51.284;7.226;2022-09-09T00:48:11;18.30;96.90
21950;DHT22;11139;51.284;7.226;2022-09-09T00:50:51;18.40;96.80
21950;DHT22;11139;51.284;7.226;2022-09-09T00:56:18;18.30;96.90
21950;DHT22;11139;51.284;7.226;2022-09-09T00:58:54;18.30;96.80
21950;DHT22;11139;51.284;7.226;2022-09-09T01:01:23;18.30;96.90
21950;DHT22;11139;51.284;7.226;2022-09-09T01:03:55;18.30;97.00
21950;DHT22;11139;51.284;7.226;2022-09-09T01:06:31;18.30;96.90
21950;DHT22;11139;51.284;7.226;2022-09-09T01:11:47;18.30;96.80
21950;DHT22;11139;51.284;7.226;2022-09-09T01:17:01;18.30;96.90
21950;DHT22;11139;51.284;7.226;2022-09-09T01:27:38;18.20;97.00
21950;DHT22;11139;51.284;7.226;2022-09-09T01:30:08;18.20;96.90
21950;DHT22;11139;51.284;7.226;2022-09-09T01:32:45;18.20;96.90
21950;DHT22;11139;51.284;7.226;2022-09-09T01:35:13;18.20;96.90
21950;DHT22;11139;51.284;7.226;2022-09-09T01:37:40;18.20;97.00
21950;DHT22;11139;51.284;7.226;2022-09-09T01:40:06;18.20;97.10
21950;DHT22;11139;51.284;7.226;2022-09-09T01:42:31;18.20;97.00
21950;DHT22;11139;51.284;7.226;2022-09-09T01:44:57;18.20;96.90
21950;DHT22;11139;51.284;7.226;2022-09-09T01:47:22;18.20;97.00
21950;DHT22;11139;51.284;7.226;2022-09-09T01:49:48;18.20;96.90
21950;DHT22;11139;51.284;7.226;2022-09-09T01:52:13;18.20;97.00
21950;DHT22;11139;51.284;7.226;2022-09-09T01:54:39;18.20;97.00
21950;DHT22;11139;51.284;7.226;2022-09-09T02:07:19;18.20;97.30
21950;DHT22;11139;51.284;7.226;2022-09-09T02:09:47;18.20;97.30
21950;DHT22;11139;51.284;7.226;2022-09-09T02:12:16;18.20;97.60
21950;DHT22;11139;51.284;7.226;2022-09-09T02:14:47;18.10;97.60
21950;DHT22;11139;51.284;7.226;2022-09-09T02:17:14;18.10;97.80
21950;DHT22;11139;51.284;7.226;2022-09-09T02:19:51;18.10;98.30
21950;DHT22;11139;51.284;7.226;2022-09-09T02:22:19;18.10;98.10
21950;DHT22;11139;51.284;7.226;2022-09-09T02:24:47;18.10;98.20
21950;DHT22;11139;51.284;7.226;2022-09-09T02:27:12;18.10;98.60
21950;DHT22;11139;51.284;7.226;2022-09-09T02:29:40;18.10;98.40
21950;DHT22;11139;51.284;7.226;2022-09-09T02:32:07;18.10;98.40
21950;DHT22;11139;51.284;7.226;2022-09-09T02:34:35;18.10;98.50
21950;DHT22;11139;51.284;7.226;2022-09-09T02:37:01;18.10;98.80
21950;DHT22;11139;51.284;7.226;2022-09-09T02:39:28;18.10;99.00
21950;DHT22;11139;51.284;7.226;2022-09-09T02:41:54;18.00;98.70
21950;DHT22;11139;51.284;7.226;2022-09-09T02:44:19;18.00;98.90
21950;DHT22;11139;51.284;7.226;2022-09-09T02:49:25;18.00;99.00
21950;DHT22;11139;51.284;7.226;2022-09-09T02:54:30;18.00;99.20
21950;DHT22;11139;51.284;7.226;2022-09-09T02:57:01;18.00;99.00
21950;DHT22;11139;51.284;7.226;2022-09-09T02:59:28;18.00;99.00
21950;DHT22;11139;51.284;7.226;2022-09-09T03:01:55;18.00;98.90
21950;DHT22;11139;51.284;7.226;2022-09-09T03:04:23;18.00;99.20
21950;DHT22;11139;51.284;7.226;2022-09-09T03:06:50;18.00;99.20
21950;DHT22;11139;51.284;7.226;2022-09-09T03:09:15;18.00;99.20
21950;DHT22;11139;51.284;7.226;2022-09-09T03:11:41;18.00;99.10
21950;DHT22;11139;51.284;7.226;2022-09-09T03:14:06;18.00;99.20
21950;DHT22;11139;51.284;7.226;2022-09-09T03:16:32;17.90;99.40
21950;DHT22;11139;51.284;7.226;2022-09-09T03:19:00;17.90;99.40
21950;DHT22;11139;51.284;7.226;2022-09-09T03:21:25;17.90;99.40
21950;DHT22;11139;51.284;7.226;2022-09-09T03:23:50;17.90;99.00
21950;DHT22;11139;51.284;7.226;2022-09-09T03:26:16;17.90;98.80
21950;DHT22;11139;51.284;7.226;2022-09-09T03:28:42;17.90;99.30
21950;DHT22;11139;51.284;7.226;2022-09-09T03:31:08;17.90;99.00
21950;DHT22;11139;51.284;7.226;2022-09-09T03:33:38;17.90;99.10
21950;DHT22;11139;51.284;7.226;2022-09-09T03:36:04;17.90;99.40
21950;DHT22;11139;51.284;7.226;2022-09-09T03:38:30;17.90;99.30
21950;DHT22;11139;51.284;7.226;2022-09-09T03:40:56;17.90;99.20
21950;DHT22;11139;51.284;7.226;2022-09-09T03:43:26;17.90;99.40
21950;DHT22;11139;51.284;7.226;2022-09-09T03:45:52;17.90;99.30
21950;DHT22;11139;51.284;7.226;2022-09-09T03:48:18;17.90;99.40
21950;DHT22;11139;51.284;7.226;2022-09-09T03:50:44;17.80;99.40
21950;DHT22;11139;51.284;7.226;2022-09-09T03:53:10;17.90;99.30
21950;DHT22;11139;51.284;7.226;2022-09-09T03:55:35;17.80;99.50
21950;DHT22;11139;51.284;7.226;2022-09-09T03:58:01;17.80;99.60
21950;DHT22;11139;51.284;7.226;2022-09-09T04:00:26;17.80;99.50
21950;DHT22;11139;51.284;7.226;2022-09-09T04:02:52;17.80;99.60
21950;DHT22;11139;51.284;7.226;2022-09-09T04:05:19;17.80;99.40
21950;DHT22;11139;51.284;7.226;2022-09-09T04:07:44;17.80;99.60
21950;DHT22;11139;51.284;7.226;2022-09-09T04:10:10;17.80;99.60
21950;DHT22;11139;51.284;7.226;2022-09-09T04:12:36;17.80;99.50
21950;DHT22;11139;51.284;7.226;2022-09-09T04:15:01;17.80;99.50
21950;DHT22;11139;51.284;7.226;2022-09-09T04:17:27;17.80;99.50
21950;DHT22;11139;51.284;7.226;2022-09-09T04:19:52;17.80;99.20
21950;DHT22;11139;51.284;7.226;2022-09-09T04:22:18;17.80;99.40
21950;DHT22;11139;51.284;7.226;2022-09-09T04:24:43;17.80;99.30
21950;DHT22;11139;51.284;7.226;2022-09-09T04:27:09;17.80;99.20
21950;DHT22;11139;51.284;7.226;2022-09-09T04:29:34;17.80;99.20
21950;DHT22;11139;51.284;7.226;2022-09-09T04:32:00;17.80;99.20
21950;DHT22;11139;51.284;7.226;2022-09-09T04:34:26;17.80;99.00
21950;DHT22;11139;51.284;7.226;2022-09-09T04:36:51;17.80;99.30
21950;DHT22;11139;51.284;7.226;2022-09-09T04:39:17;17.80;99.60
21950;DHT22;11139;51.284;7.226;2022-09-09T04:41:42;17.70;99.60
21950;DHT22;11139;51.284;7.226;2022-09-09T04:44:08;17.80;99.50
21950;DHT22;11139;51.284;7.226;2022-09-09T04:46:35;17.70;99.40
21950;DHT22;11139;51.284;7.226;2022-09-09T04:49:00;17.80;99.70
21950;DHT22;11139;51.284;7.226;2022-09-09T04:51:26;17.70;99.60
21950;DHT22;11139;51.284;7.226;2022-09-09T04:53:52;17.70;99.70
21950;DHT22;11139;51.284;7.226;2022-09-09T04:56:19;17.70;99.60
21950;DHT22;11139;51.284;7.226;2022-09-09T04:58:44;17.70;99.50
21950;DHT22;11139;51.284;7.226;2022-09-09T05:01:15;17.70;99.70
21950;DHT22;11139;51.284;7.226;2022-09-09T05:03:42;17.70;99.70
21950;DHT22;11139;51.284;7.226;2022-09-09T05:06:11;17.70;99.70
21950;DHT22;11139;51.284;7.226;2022-09-09T05:08:37;17.70;99.50
21950;DHT22;11139;51.284;7.226;2022-09-09T05:11:03;17.70;99.80
21950;DHT22;11139;51.284;7.226;2022-09-09T05:13:29;17.70;99.90
21950;DHT22;11139;51.284;7.226;2022-09-09T05:15:56;17.70;99.80
21950;DHT22;11139;51.284;7.226;2022-09-09T05:18:22;17.70;99.90
21950;DHT22;11139;51.284;7.226;2022-09-09T05:20:48;17.70;99.90
21950;DHT22;11139;51.284;7.226;2022-09-09T05:23:13;17.70;99.70
21950;DHT22;11139;51.284;7.226;2022-09-09T05:25:39;17.70;99.80
21950;DHT22;11139;51.284;7.226;2022-09-09T05:28:05;17.70;99.80
21950;DHT22;11139;51.284;7.226;2022-09-09T05:30:32;17.70;99.90
21950;DHT22;11139;51.284;7.226;2022-09-09T05:32:59;17.70;99.70
21950;DHT22;11139;51.284;7.226;2022-09-09T05:35:24;17.70;99.90
21950;DHT22;11139;51.284;7.226;2022-09-09T05:37:50;17.60;99.80
21950;DHT22;11139;51.284;7.226;2022-09-09T05:40:15;17.70;99.90
21950;DHT22;11139;51.284;7.226;2022-09-09T05:42:41;17.70;99.90
21950;DHT22;11139;51.284;7.226;2022-09-09T05:45:07;17.60;99.70
21950;DHT22;11139;51.284;7.226;2022-09-09T05:47:34;17.70;99.70
21950;DHT22;11139;51.284;7.226;2022-09-09T05:49:59;17.60;99.90
21950;DHT22;11139;51.284;7.226;2022-09-09T05:52:25;17.60;99.90
21950;DHT22;11139;51.284;7.226;2022-09-09T05:54:52;17.60;99.90
21950;DHT22;11139;51.284;7.226;2022-09-09T05:57:20;17.60;99.90
21950;DHT22;11139;51.284;7.226;2022-09-09T05:59:45;17.60;99.90
21950;DHT22;11139;51.284;7.226;2022-09-09T06:02:11;17.60;99.90
21950;DHT22;11139;51.284;7.226;2022-09-09T06:04:37;17.60;99.90
21950;DHT22;11139;51.284;7.226;2022-09-09T06:07:04;17.60;99.90
21950;DHT22;11139;51.284;7.226;2022-09-09T06:09:29;17.60;99.90
21950;DHT22;11139;51.284;7.226;2022-09-09T06:11:55;17.60;99.90
21950;DHT22;11139;51.284;7.226;2022-09-09T06:14:22;17.60;99.90
21950;DHT22;11139;51.284;7.226;2022-09-09T06:16:48;17.60;99.90
21950;DHT22;11139;51.284;7.226;2022-09-09T06:19:14;17.60;99.90
21950;DHT22;11139;51.284;7.226;2022-09-09T06:21:39;17.60;99.90
21950;DHT22;11139;51.284;7.226;2022-09-09T06:24:06;17.60;99.90
21950;DHT22;11139;51.284;7.226;2022-09-09T06:26:33;17.60;99.90
21950;DHT22;11139;51.284;7.226;2022-09-09T06:28:59;17.60;99.90
21950;DHT22;11139;51.284;7.226;2022-09-09T06:31:26;17.50;99.90
21950;DHT22;11139;51.284;7.226;2022-09-09T06:33:53;17.50;99.90
21950;DHT22;11139;51.284;7.226;2022-09-09T06:36:20;17.50;99.90
21950;DHT22;11139;51.284;7.226;2022-09-09T06:38:46;17.50;99.90
21950;DHT22;11139;51.284;7.226;2022-09-09T06:41:13;17.50;99.90
21950;DHT22;11139;51.284;7.226;2022-09-09T06:43:39;17.50;99.90
21950;DHT22;11139;51.284;7.226;2022-09-09T06:48:39;17.50;99.90
21950;DHT22;11139;51.284;7.226;2022-09-09T06:53:36;17.50;99.90
21950;DHT22;11139;51.284;7.226;2022-09-09T06:56:17;17.50;99.90
21950;DHT22;11139;51.284;7.226;2022-09-09T06:58:43;17.50;99.90
21950;DHT22;11139;51.284;7.226;2022-09-09T07:01:11;17.50;99.90
21950;DHT22;11139;51.284;7.226;2022-09-09T07:03:37;17.50;99.90
21950;DHT22;11139;51.284;7.226;2022-09-09T07:06:04;17.50;99.90
21950;DHT22;11139;51.284;7.226;2022-09-09T07:08:30;17.50;99.90
21950;DHT22;11139;51.284;7.226;2022-09-09T07:11:02;17.50;99.90
21950;DHT22;11139;51.284;7.226;2022-09-09T07:13:29;17.50;99.90
21950;DHT22;11139;51.284;7.226;2022-09-09T07:15:55;17.50;99.90
21950;DHT22;11139;51.284;7.226;2022-09-09T07:18:20;17.50;99.90
21950;DHT22;11139;51.284;7.226;2022-09-09T07:20:52;17.50;99.90
21950;DHT22;11139;51.284;7.226;2022-09-09T07:23:18;17.50;99.90
21950;DHT22;11139;51.284;7.226;2022-09-09T07:25:47;17.50;99.90
21950;DHT22;11139;51.284;7.226;2022-09-09T07:28:13;17.50;99.90
21950;DHT22;11139;51.284;7.226;2022-09-09T07:30:38;17.50;99.90
21950;DHT22;11139;51.284;7.226;2022-09-09T07:33:05;17.50;99.90
21950;DHT22;11139;51.284;7.226;2022-09-09T07:35:31;17.50;99.90
21950;DHT22;11139;51.284;7.226;2022-09-09T07:37:56;17.50;99.90
21950;DHT22;11139;51.284;7.226;2022-09-09T07:40:22;17.50;99.90
21950;DHT22;11139;51.284;7.226;2022-09-09T07:42:47;17.50;99.90
21950;DHT22;11139;51.284;7.226;2022-09-09T07:45:13;17.50;99.90
21950;DHT22;11139;51.284;7.226;2022-09-09T07:47:39;17.50;99.90
21950;DHT22;11139;51.284;7.226;2022-09-09T07:50:06;17.50;99.90
21950;DHT22;11139;51.284;7.226;2022-09-09T07:52:33;17.50;99.90
21950;DHT22;11139;51.284;7.226;2022-09-09T07:54:59;17.50;99.90
21950;DHT22;11139;51.284;7.226;2022-09-09T07:57:25;17.50;99.90
21950;DHT22;11139;51.284;7.226;2022-09-09T07:59:51;17.50;99.90
21950;DHT22;11139;51.284;7.226;2022-09-09T08:02:17;17.40;99.90
21950;DHT22;11139;51.284;7.226;2022-09-09T08:04:42;17.50;99.90
21950;DHT22;11139;51.284;7.226;2022-09-09T08:07:08;17.50;99.90
21950;DHT22;11139;51.284;7.226;2022-09-09T08:09:33;17.50;99.90
21950;DHT22;11139;51.284;7.226;2022-09-09T08:11:59;17.50;99.90
21950;DHT22;11139;51.284;7.226;2022-09-09T08:14:25;17.50;99.90
21950;DHT22;11139;51.284;7.226;2022-09-09T08:16:50;17.50;99.90
21950;DHT22;11139;51.284;7.226;2022-09-09T08:19:18;17.50;99.90
21950;DHT22;11139;51.284;7.226;2022-09-09T08:21:43;17.50;99.90
21950;DHT22;11139;51.284;7.226;2022-09-09T08:24:10;17.50;99.90
21950;DHT22;11139;51.284;7.226;2022-09-09T08:26:37;17.40;99.90
21950;DHT22;11139;51.284;7.226;2022-09-09T08:29:04;17.50;99.90
21950;DHT22;11139;51.284;7.226;2022-09-09T08:31:49;17.50;99.90
21950;DHT22;11139;51.284;7.226;2022-09-09T08:34:14;17.50;99.90
21950;DHT22;11139;51.284;7.226;2022-09-09T08:36:44;17.50;99.90
21950;DHT22;11139;51.284;7.226;2022-09-09T08:39:10;17.50;99.90
21950;DHT22;11139;51.284;7.226;2022-09-09T08:41:43;17.50;99.90
21950;DHT22;11139;51.284;7.226;2022-09-09T08:49:25;17.50;99.70
21950;DHT22;11139;51.284;7.226;2022-09-09T08:51:53;17.50;99.60
21950;DHT22;11139;51.284;7.226;2022-09-09T08:54:21;17.50;99.50
21950;DHT22;11139;51.284;7.226;2022-09-09T08:56:46;17.50;99.80
21950;DHT22;11139;51.284;7.226;2022-09-09T08:59:13;17.50;99.40
21950;DHT22;11139;51.284;7.226;2022-09-09T09:01:45;17.50;99.30
21950;DHT22;11139;51.284;7.226;2022-09-09T09:06:54;17.50;99.20
21950;DHT22;11139;51.284;7.226;2022-09-09T09:09:46;17.50;99.10
21950;DHT22;11139;51.284;7.226;2022-09-09T09:12:20;17.50;99.30
21950;DHT22;11139;51.284;7.226;2022-09-09T09:14:47;17.60;99.00
21950;DHT22;11139;51.284;7.226;2022-09-09T09:17:14;17.60;98.90
21950;DHT22;11139;51.284;7.226;2022-09-09T09:19:40;17.50;98.80
21950;DHT22;11139;51.284;7.226;2022-09-09T09:24:53;17.50;98.70
21950;DHT22;11139;51.284;7.226;2022-09-09T09:27:31;17.50;98.70
21950;DHT22;11139;51.284;7.226;2022-09-09T09:29:58;17.50;98.70
21950;DHT22;11139;51.284;7.226;2022-09-09T09:32:24;17.50;98.90
21950;DHT22;11139;51.284;7.226;2022-09-09T09:34:53;17.50;99.10
21950;DHT22;11139;51.284;7.226;2022-09-09T09:37:32;17.50;99.40
21950;DHT22;11139;51.284;7.226;2022-09-09T09:40:16;17.50;99.70
21950;DHT22;11139;51.284;7.226;2022-09-09T09:43:17;17.50;99.80
21950;DHT22;11139;51.284;7.226;2022-09-09T09:45:40;17.50;99.90
21950;DHT22;11139;51.284;7.226;2022-09-09T09:48:10;17.50;99.90
21950;DHT22;11139;51.284;7.226;2022-09-09T09:50:39;17.50;99.80
21950;DHT22;11139;51.284;7.226;2022-09-09T09:53:22;17.50;99.70
21950;DHT22;11139;51.284;7.226;2022-09-09T09:55:59;17.60;99.70
21950;DHT22;11139;51.284;7.226;2022-09-09T09:58:25;17.60;99.40
21950;DHT22;11139;51.284;7.226;2022-09-09T10:00:52;17.60;99.10
21950;DHT22;11139;51.284;7.226;2022-09-09T10:03:22;17.60;98.80
21950;DHT22;11139;51.284;7.226;2022-09-09T10:05:48;17.60;98.70
21950;DHT22;11139;51.284;7.226;2022-09-09T10:08:16;17.60;98.50
21950;DHT22;11139;51.284;7.226;2022-09-09T10:10:57;17.50;98.30
21950;DHT22;11139;51.284;7.226;2022-09-09T10:18:52;17.60;98.00
21950;DHT22;11139;51.284;7.226;2022-09-09T10:31:57;17.60;97.30
21950;DHT22;11139;51.284;7.226;2022-09-09T10:37:20;17.60;97.00
21950;DHT22;11139;51.284;7.226;2022-09-09T10:39:53;17.60;96.70
21950;DHT22;11139;51.284;7.226;2022-09-09T10:42:24;17.60;96.60
21950;DHT22;11139;51.284;7.226;2022-09-09T10:47:25;17.70;96.60
21950;DHT22;11139;51.284;7.226;2022-09-09T10:55:16;17.70;97.00
21950;DHT22;11139;51.284;7.226;2022-09-09T10:57:47;17.70;96.60
21950;DHT22;11139;51.284;7.226;2022-09-09T11:02:42;17.80;96.40
21950;DHT22;11139;51.284;7.226;2022-09-09T11:05:18;17.80;96.10
21950;DHT22;11139;51.284;7.226;2022-09-09T11:07:50;17.80;96.00
21950;DHT22;11139;51.284;7.226;2022-09-09T11:13:01;17.80;95.70
21950;DHT22;11139;51.284;7.226;2022-09-09T11:15:35;17.80;95.70
21950;DHT22;11139;51.284;7.226;2022-09-09T11:18:04;17.90;95.60
21950;DHT22;11139;51.284;7.226;2022-09-09T11:20:29;17.90;95.60
21950;DHT22;11139;51.284;7.226;2022-09-09T11:23:17;17.80;95.60
21950;DHT22;11139;51.284;7.226;2022-09-09T11:25:44;17.80;95.50
21950;DHT22;11139;51.284;7.226;2022-09-09T11:30:48;17.80;95.60
21950;DHT22;11139;51.284;7.226;2022-09-09T11:35:59;17.90;95.50
21950;DHT22;11139;51.284;7.226;2022-09-09T11:38:28;17.90;95.40
21950;DHT22;11139;51.284;7.226;2022-09-09T11:40:55;17.90;95.20
21950;DHT22;11139;51.284;7.226;2022-09-09T11:43:25;18.00;95.10
21950;DHT22;11139;51.284;7.226;2022-09-09T11:45:53;18.00;95.00
21950;DHT22;11139;51.284;7.226;2022-09-09T11:48:25;18.00;94.90
21950;DHT22;11139;51.284;7.226;2022-09-09T11:51:02;18.00;94.70
21950;DHT22;11139;51.284;7.226;2022-09-09T11:53:30;18.00;94.70
21950;DHT22;11139;51.284;7.226;2022-09-09T11:56:00;18.00;94.80
21950;DHT22;11139;51.284;7.226;2022-09-09T11:58:26;18.00;94.90
21950;DHT22;11139;51.284;7.226;2022-09-09T12:00:52;17.90;94.90
21950;DHT22;11139;51.284;7.226;2022-09-09T12:09:06;17.90;95.60
21950;DHT22;11139;51.284;7.226;2022-09-09T12:11:33;17.90;95.70
21950;DHT22;11139;51.284;7.226;2022-09-09T12:13:59;17.90;96.50
21950;DHT22;11139;51.284;7.226;2022-09-09T12:19:15;17.80;97.70
21950;DHT22;11139;51.284;7.226;2022-09-09T12:21:56;17.80;98.30
21950;DHT22;11139;51.284;7.226;2022-09-09T12:24:26;17.80;98.50
21950;DHT22;11139;51.284;7.226;2022-09-09T12:26:56;17.80;99.10
21950;DHT22;11139;51.284;7.226;2022-09-09T12:29:27;17.80;99.20
21950;DHT22;11139;51.284;7.226;2022-09-09T12:36:48;17.80;99.20
21950;DHT22;11139;51.284;7.226;2022-09-09T12:39:18;17.80;99.10
21950;DHT22;11139;51.284;7.226;2022-09-09T12:41:51;17.80;98.70
21950;DHT22;11139;51.284;7.226;2022-09-09T12:44:22;17.90;98.30
21950;DHT22;11139;51.284;7.226;2022-09-09T12:46:47;17.90;98.10
21950;DHT22;11139;51.284;7.226;2022-09-09T12:52:03;17.90;97.80
21950;DHT22;11139;51.284;7.226;2022-09-09T12:54:31;17.90;97.70
21950;DHT22;11139;51.284;7.226;2022-09-09T12:56:56;17.90;97.40
21950;DHT22;11139;51.284;7.226;2022-09-09T12:59:23;17.90;97.40
21950;DHT22;11139;51.284;7.226;2022-09-09T13:01:55;17.90;97.30
21950;DHT22;11139;51.284;7.226;2022-09-09T13:04:20;17.90;97.20
21950;DHT22;11139;51.284;7.226;2022-09-09T13:06:47;17.90;97.20
21950;DHT22;11139;51.284;7.226;2022-09-09T13:09:13;17.90;97.20
21950;DHT22;11139;51.284;7.226;2022-09-09T13:11:42;17.90;97.00
21950;DHT22;11139;51.284;7.226;2022-09-09T13:14:12;17.90;97.10
21950;DHT22;11139;51.284;7.226;2022-09-09T13:16:55;17.90;97.60
21950;DHT22;11139;51.284;7.226;2022-09-09T13:19:21;17.90;98.10
21950;DHT22;11139;51.284;7.226;2022-09-09T13:21:47;17.90;98.40
21950;DHT22;11139;51.284;7.226;2022-09-09T13:24:30;17.90;98.30
21950;DHT22;11139;51.284;7.226;2022-09-09T13:27:03;17.90;98.30
21950;DHT22;11139;51.284;7.226;2022-09-09T13:29:29;17.90;98.20
21950;DHT22;11139;51.284;7.226;2022-09-09T13:32:05;17.90;98.10
21950;DHT22;11139;51.284;7.226;2022-09-09T13:34:33;17.90;98.00
21950;DHT22;11139;51.284;7.226;2022-09-09T13:37:03;17.90;98.60
21950;DHT22;11139;51.284;7.226;2022-09-09T13:39:32;17.90;99.20
21950;DHT22;11139;51.284;7.226;2022-09-09T13:41:57;17.80;99.80
21950;DHT22;11139;51.284;7.226;2022-09-09T13:44:24;17.80;99.90
21950;DHT22;11139;51.284;7.226;2022-09-09T13:49:48;17.80;99.90
21950;DHT22;11139;51.284;7.226;2022-09-09T13:52:17;17.80;99.90
21950;DHT22;11139;51.284;7.226;2022-09-09T13:54:47;17.80;99.90
21950;DHT22;11139;51.284;7.226;2022-09-09T13:57:15;17.70;99.90
21950;DHT22;11139;51.284;7.226;2022-09-09T13:59:40;17.70;99.90
21950;DHT22;11139;51.284;7.226;2022-09-09T14:02:07;17.70;99.90
21950;DHT22;11139;51.284;7.226;2022-09-09T14:04:32;17.80;99.90
21950;DHT22;11139;51.284;7.226;2022-09-09T14:07:00;17.80;99.90
21950;DHT22;11139;51.284;7.226;2022-09-09T14:09:26;17.80;99.90
21950;DHT22;11139;51.284;7.226;2022-09-09T14:11:51;17.80;99.90
21950;DHT22;11139;51.284;7.226;2022-09-09T14:14:16;17.80;99.90
21950;DHT22;11139;51.284;7.226;2022-09-09T14:16:42;17.80;99.90
21950;DHT22;11139;51.284;7.226;2022-09-09T14:19:08;17.80;99.90
21950;DHT22;11139;51.284;7.226;2022-09-09T14:21:34;17.80;99.90
21950;DHT22;11139;51.284;7.226;2022-09-09T14:24:00;17.90;99.90
21950;DHT22;11139;51.284;7.226;2022-09-09T14:26:25;17.90;99.90
21950;DHT22;11139;51.284;7.226;2022-09-09T14:28:51;18.00;99.90
21950;DHT22;11139;51.284;7.226;2022-09-09T14:31:17;18.00;99.90
21950;DHT22;11139;51.284;7.226;2022-09-09T14:33:43;18.00;99.90
21950;DHT22;11139;51.284;7.226;2022-09-09T14:36:09;18.00;99.90
21950;DHT22;11139;51.284;7.226;2022-09-09T14:38:36;18.00;99.90
21950;DHT22;11139;51.284;7.226;2022-09-09T14:41:15;18.00;99.90
21950;DHT22;11139;51.284;7.226;2022-09-09T14:43:43;18.00;99.90
21950;DHT22;11139;51.284;7.226;2022-09-09T14:46:10;18.00;99.90
21950;DHT22;11139;51.284;7.226;2022-09-09T14:48:36;18.00;99.90
21950;DHT22;11139;51.284;7.226;2022-09-09T14:51:06;18.00;99.90
21950;DHT22;11139;51.284;7.226;2022-09-09T14:53:32;18.00;99.90
21950;DHT22;11139;51.284;7.226;2022-09-09T14:56:08;17.90;99.90
21950;DHT22;11139;51.284;7.226;2022-09-09T14:58:34;17.90;99.90
21950;DHT22;11139;51.284;7.226;2022-09-09T15:01:10;17.90;99.90
21950;DHT22;11139;51.284;7.226;2022-09-09T15:03:36;17.90;99.90
21950;DHT22;11139;51.284;7.226;2022-09-09T15:06:13;17.90;99.90
21950;DHT22;11139;51.284;7.226;2022-09-09T15:08:42;17.90;99.90
21950;DHT22;11139;51.284;7.226;2022-09-09T15:11:12;17.90;99.90
21950;DHT22;11139;51.284;7.226;2022-09-09T15:13:38;17.80;99.90
21950;DHT22;11139;51.284;7.226;2022-09-09T15:16:05;17.80;99.90
21950;DHT22;11139;51.284;7.226;2022-09-09T15:18:31;17.80;99.90
21950;DHT22;11139;51.284;7.226;2022-09-09T15:21:02;17.80;99.90
21950;DHT22;11139;51.284;7.226;2022-09-09T15:23:28;17.80;99.90
21950;DHT22;11139;51.284;7.226;2022-09-09T15:25:54;17.80;99.90
21950;DHT22;11139;51.284;7.226;2022-09-09T15:28:20;17.80;99.90
21950;DHT22;11139;51.284;7.226;2022-09-09T15:30:50;17.80;99.90
21950;DHT22;11139;51.284;7.226;2022-09-09T15:33:16;17.80;99.90
21950;DHT22;11139;51.284;7.226;2022-09-09T15:35:42;17.80;99.90
21950;DHT22;11139;51.284;7.226;2022-09-09T15:38:07;17.70;99.90
21950;DHT22;11139;51.284;7.226;2022-09-09T15:40:33;17.70;99.90
21950;DHT22;11139;51.284;7.226;2022-09-09T15:42:59;17.70;99.90
21950;DHT22;11139;51.284;7.226;2022-09-09T15:45:24;17.80;99.90
21950;DHT22;11139;51.284;7.226;2022-09-09T15:47:49;17.70;99.90
21950;DHT22;11139;51.284;7.226;2022-09-09T15:50:15;17.70;99.90
21950;DHT22;11139;51.284;7.226;2022-09-09T15:52:41;17.80;99.90
21950;DHT22;11139;51.284;7.226;2022-09-09T15:55:06;17.70;99.90
21950;DHT22;11139;51.284;7.226;2022-09-09T15:57:33;17.70;99.90
21950;DHT22;11139;51.284;7.226;2022-09-09T16:00:00;17.70;99.90
21950;DHT22;11139;51.284;7.226;2022-09-09T16:02:26;17.70;99.90
21950;DHT22;11139;51.284;7.226;2022-09-09T16:04:52;17.80;99.90
21950;DHT22;11139;51.284;7.226;2022-09-09T16:07:17;17.70;99.90
21950;DHT22;11139;51.284;7.226;2022-09-09T16:09:43;17.80;99.90
21950;DHT22;11139;51.284;7.226;2022-09-09T16:12:08;17.70;99.90
21950;DHT22;11139;51.284;7.226;2022-09-09T16:14:40;17.70;99.90
21950;DHT22;11139;51.284;7.226;2022-09-09T16:17:06;17.70;99.90
21950;DHT22;11139;51.284;7.226;2022-09-09T16:19:32;17.70;99.90
21950;DHT22;11139;51.284;7.226;2022-09-09T16:21:57;17.80;99.90
21950;DHT22;11139;51.284;7.226;2022-09-09T16:24:23;17.70;99.90
21950;DHT22;11139;51.284;7.226;2022-09-09T16:26:50;17.70;99.90
21950;DHT22;11139;51.284;7.226;2022-09-09T16:29:16;17.70;99.90
21950;DHT22;11139;51.284;7.226;2022-09-09T16:31:42;17.70;99.90
21950;DHT22;11139;51.284;7.226;2022-09-09T16:34:08;17.70;99.90
21950;DHT22;11139;51.284;7.226;2022-09-09T16:36:35;17.80;99.90
21950;DHT22;11139;51.284;7.226;2022-09-09T16:39:02;17.80;99.90
21950;DHT22;11139;51.284;7.226;2022-09-09T16:41:29;17.70;99.90
21950;DHT22;11139;51.284;7.226;2022-09-09T16:43:58;17.70;99.90
21950;DHT22;11139;51.284;7.226;2022-09-09T16:46:26;17.70;99.90
21950;DHT22;11139;51.284;7.226;2022-09-09T16:48:53;17.70;99.90
21950;DHT22;11139;51.284;7.226;2022-09-09T16:53:45;17.70;99.90
21950;DHT22;11139;51.284;7.226;2022-09-09T16:56:15;17.70;99.90
21950;DHT22;11139;51.284;7.226;2022-09-09T16:58:41;17.70;99.90
21950;DHT22;11139;51.284;7.226;2022-09-09T17:01:10;17.70;99.90
21950;DHT22;11139;51.284;7.226;2022-09-09T17:03:39;17.70;99.90
21950;DHT22;11139;51.284;7.226;2022-09-09T17:06:08;17.70;99.90
21950;DHT22;11139;51.284;7.226;2022-09-09T17:08:34;17.70;99.90
21950;DHT22;11139;51.284;7.226;2022-09-09T17:11:00;17.70;99.90
21950;DHT22;11139;51.284;7.226;2022-09-09T17:13:25;17.70;99.90
21950;DHT22;11139;51.284;7.226;2022-09-09T17:15:51;17.70;99.90
21950;DHT22;11139;51.284;7.226;2022-09-09T17:18:16;17.70;99.90
21950;DHT22;11139;51.284;7.226;2022-09-09T17:20:42;17.70;99.90
21950;DHT22;11139;51.284;7.226;2022-09-09T17:23:09;17.70;99.90
21950;DHT22;11139;51.284;7.226;2022-09-09T17:25:35;17.70;99.90
21950;DHT22;11139;51.284;7.226;2022-09-09T17:28:01;17.70;99.90
21950;DHT22;11139;51.284;7.226;2022-09-09T17:30:29;17.70;99.90
21950;DHT22;11139;51.284;7.226;2022-09-09T17:32:56;17.70;99.90
21950;DHT22;11139;51.284;7.226;2022-09-09T17:35:22;17.70;99.90